sensor_id;sensor_type;location;lat;lon;timestamp;P1;durP1;ratioP1;P2;durP2;ratioP2
22894;SDS011;11614;52.494;6.976;2023-05-07T00:01:38;16.80;;;10.80;;
22894;SDS011;11614;52.494;6.976;2023-05-07T00:04:05;16.30;;;11.10;;
22894;SDS011;11614;52.494;6.976;2023-05-07T00:06:32;16.40;;;9.80;;
22894;SDS011;11614;52.494;6.976;2023-05-07T00:08:58;14.57;;;10.00;;
22894;SDS011;11614;52.494;6.976;2023-05-07T00:11:25;15.20;;;11.27;;
22894;SDS011;11614;52.494;6.976;2023-05-07T00:13:51;16.50;;;10.30;;
22894;SDS011;11614;52.494;6.976;2023-05-07T00:16:17;18.47;;;12.07;;
22894;SDS011;11614;52.494;6.976;2023-05-07T00:18:43;18.73;;;11.23;;
22894;SDS011;11614;52.494;6.976;2023-05-07T00:21:10;9.87;;;6.33;;
22894;SDS011;11614;52.494;6.976;2023-05-07T00:23:35;14.73;;;11.37;;
22894;SDS011;11614;52.494;6.976;2023-05-07T00:26:02;14.67;;;10.60;;
22894;SDS011;11614;52.494;6.976;2023-05-07T00:28:28;16.67;;;12.43;;
22894;SDS011;11614;52.494;6.976;2023-05-07T00:30:54;16.27;;;11.43;;
22894;SDS011;11614;52.494;6.976;2023-05-07T00:33:20;20.43;;;13.23;;
22894;SDS011;11614;52.494;6.976;2023-05-07T00:35:47;14.60;;;9.97;;
22894;SDS011;11614;52.494;6.976;2023-05-07T00:38:12;21.77;;;14.00;;
22894;SDS011;11614;52.494;6.976;2023-05-07T00:40:38;20.63;;;13.30;;
22894;SDS011;11614;52.494;6.976;2023-05-07T00:43:04;17.50;;;12.47;;
22894;SDS011;11614;52.494;6.976;2023-05-07T00:45:30;19.90;;;12.97;;
22894;SDS011;11614;52.494;6.976;2023-05-07T00:47:59;23.37;;;15.70;;
22894;SDS011;11614;52.494;6.976;2023-05-07T00:50:26;19.30;;;14.10;;
22894;SDS011;11614;52.494;6.976;2023-05-07T00:52:53;13.33;;;9.30;;
22894;SDS011;11614;52.494;6.976;2023-05-07T00:55:19;17.57;;;11.57;;
22894;SDS011;11614;52.494;6.976;2023-05-07T00:57:45;20.97;;;14.20;;
22894;SDS011;11614;52.494;6.976;2023-05-07T01:00:11;20.57;;;13.23;;
22894;SDS011;11614;52.494;6.976;2023-05-07T01:02:38;22.97;;;14.30;;
22894;SDS011;11614;52.494;6.976;2023-05-07T01:05:04;20.23;;;13.13;;
22894;SDS011;11614;52.494;6.976;2023-05-07T01:07:32;23.70;;;15.30;;
22894;SDS011;11614;52.494;6.976;2023-05-07T01:09:59;28.60;;;16.30;;
22894;SDS011;11614;52.494;6.976;2023-05-07T01:12:26;23.30;;;15.53;;
22894;SDS011;11614;52.494;6.976;2023-05-07T01:14:53;22.43;;;16.93;;
22894;SDS011;11614;52.494;6.976;2023-05-07T01:17:19;19.23;;;13.33;;
22894;SDS011;11614;52.494;6.976;2023-05-07T01:19:45;24.07;;;15.93;;
22894;SDS011;11614;52.494;6.976;2023-05-07T01:22:12;28.07;;;16.43;;
22894;SDS011;11614;52.494;6.976;2023-05-07T01:24:41;25.67;;;16.33;;
22894;SDS011;11614;52.494;6.976;2023-05-07T01:27:08;21.30;;;14.80;;
22894;SDS011;11614;52.494;6.976;2023-05-07T01:29:34;21.27;;;14.00;;
22894;SDS011;11614;52.494;6.976;2023-05-07T01:32:00;26.30;;;17.93;;
22894;SDS011;11614;52.494;6.976;2023-05-07T01:34:28;22.83;;;16.47;;
22894;SDS011;11614;52.494;6.976;2023-05-07T01:36:56;27.27;;;18.43;;
22894;SDS011;11614;52.494;6.976;2023-05-07T01:39:26;20.07;;;12.37;;
22894;SDS011;11614;52.494;6.976;2023-05-07T01:41:56;27.80;;;17.17;;
22894;SDS011;11614;52.494;6.976;2023-05-07T01:44:24;26.07;;;17.93;;
22894;SDS011;11614;52.494;6.976;2023-05-07T01:46:50;19.60;;;11.30;;
22894;SDS011;11614;52.494;6.976;2023-05-07T01:49:16;25.67;;;18.23;;
22894;SDS011;11614;52.494;6.976;2023-05-07T01:51:42;21.30;;;13.23;;
22894;SDS011;11614;52.494;6.976;2023-05-07T01:54:09;23.63;;;15.63;;
22894;SDS011;11614;52.494;6.976;2023-05-07T01:56:35;27.00;;;16.33;;
22894;SDS011;11614;52.494;6.976;2023-05-07T01:59:01;25.20;;;17.13;;
22894;SDS011;11614;52.494;6.976;2023-05-07T02:01:27;24.57;;;16.43;;
22894;SDS011;11614;52.494;6.976;2023-05-07T02:03:53;22.70;;;12.93;;
22894;SDS011;11614;52.494;6.976;2023-05-07T02:06:19;20.80;;;13.43;;
22894;SDS011;11614;52.494;6.976;2023-05-07T02:08:46;28.20;;;17.77;;
22894;SDS011;11614;52.494;6.976;2023-05-07T02:11:12;25.53;;;16.73;;
22894;SDS011;11614;52.494;6.976;2023-05-07T02:13:38;21.57;;;13.57;;
22894;SDS011;11614;52.494;6.976;2023-05-07T02:16:04;21.13;;;11.17;;
22894;SDS011;11614;52.494;6.976;2023-05-07T02:18:30;31.53;;;20.67;;
22894;SDS011;11614;52.494;6.976;2023-05-07T02:20:56;30.20;;;18.43;;
22894;SDS011;11614;52.494;6.976;2023-05-07T02:23:22;26.07;;;17.10;;
22894;SDS011;11614;52.494;6.976;2023-05-07T02:25:47;29.20;;;19.37;;
22894;SDS011;11614;52.494;6.976;2023-05-07T02:28:13;28.50;;;16.83;;
22894;SDS011;11614;52.494;6.976;2023-05-07T02:30:40;32.40;;;20.83;;
22894;SDS011;11614;52.494;6.976;2023-05-07T02:33:06;28.13;;;17.63;;
22894;SDS011;11614;52.494;6.976;2023-05-07T02:35:33;27.33;;;16.50;;
22894;SDS011;11614;52.494;6.976;2023-05-07T02:37:59;26.20;;;16.13;;
22894;SDS011;11614;52.494;6.976;2023-05-07T02:40:24;30.20;;;20.80;;
22894;SDS011;11614;52.494;6.976;2023-05-07T02:42:51;32.07;;;18.87;;
22894;SDS011;11614;52.494;6.976;2023-05-07T02:45:17;31.80;;;20.67;;
22894;SDS011;11614;52.494;6.976;2023-05-07T02:47:42;33.73;;;18.33;;
22894;SDS011;11614;52.494;6.976;2023-05-07T02:50:08;32.50;;;20.47;;
22894;SDS011;11614;52.494;6.976;2023-05-07T02:52:34;31.40;;;20.63;;
22894;SDS011;11614;52.494;6.976;2023-05-07T02:55:00;33.10;;;20.70;;
22894;SDS011;11614;52.494;6.976;2023-05-07T02:57:26;28.63;;;19.20;;
22894;SDS011;11614;52.494;6.976;2023-05-07T02:59:52;30.73;;;19.27;;
22894;SDS011;11614;52.494;6.976;2023-05-07T03:02:18;30.77;;;19.60;;
22894;SDS011;11614;52.494;6.976;2023-05-07T03:04:44;33.70;;;22.67;;
22894;SDS011;11614;52.494;6.976;2023-05-07T03:07:09;36.57;;;21.50;;
22894;SDS011;11614;52.494;6.976;2023-05-07T03:09:35;34.80;;;19.80;;
22894;SDS011;11614;52.494;6.976;2023-05-07T03:12:01;36.80;;;21.17;;
22894;SDS011;11614;52.494;6.976;2023-05-07T03:14:27;34.60;;;21.23;;
22894;SDS011;11614;52.494;6.976;2023-05-07T03:16:53;35.07;;;24.00;;
22894;SDS011;11614;52.494;6.976;2023-05-07T03:19:19;28.73;;;16.83;;
22894;SDS011;11614;52.494;6.976;2023-05-07T03:21:44;28.17;;;16.90;;
22894;SDS011;11614;52.494;6.976;2023-05-07T03:24:10;32.33;;;18.67;;
22894;SDS011;11614;52.494;6.976;2023-05-07T03:26:36;37.97;;;22.83;;
22894;SDS011;11614;52.494;6.976;2023-05-07T03:29:02;39.20;;;27.40;;
22894;SDS011;11614;52.494;6.976;2023-05-07T03:31:28;32.77;;;17.73;;
22894;SDS011;11614;52.494;6.976;2023-05-07T03:33:55;38.83;;;22.00;;
22894;SDS011;11614;52.494;6.976;2023-05-07T03:36:22;36.23;;;23.70;;
22894;SDS011;11614;52.494;6.976;2023-05-07T03:38:48;46.00;;;27.53;;
22894;SDS011;11614;52.494;6.976;2023-05-07T03:41:15;34.73;;;18.87;;
22894;SDS011;11614;52.494;6.976;2023-05-07T03:43:45;38.57;;;24.37;;
22894;SDS011;11614;52.494;6.976;2023-05-07T03:46:11;41.63;;;22.50;;
22894;SDS011;11614;52.494;6.976;2023-05-07T03:48:37;41.17;;;23.30;;
22894;SDS011;11614;52.494;6.976;2023-05-07T03:51:02;27.77;;;15.77;;
22894;SDS011;11614;52.494;6.976;2023-05-07T03:53:28;41.73;;;24.03;;
22894;SDS011;11614;52.494;6.976;2023-05-07T03:55:54;40.80;;;25.00;;
22894;SDS011;11614;52.494;6.976;2023-05-07T03:58:20;35.07;;;20.50;;
22894;SDS011;11614;52.494;6.976;2023-05-07T04:00:46;46.97;;;29.43;;
22894;SDS011;11614;52.494;6.976;2023-05-07T04:03:12;39.73;;;24.53;;
22894;SDS011;11614;52.494;6.976;2023-05-07T04:05:38;40.43;;;23.20;;
22894;SDS011;11614;52.494;6.976;2023-05-07T04:08:04;39.37;;;21.50;;
22894;SDS011;11614;52.494;6.976;2023-05-07T04:10:30;40.97;;;26.47;;
22894;SDS011;11614;52.494;6.976;2023-05-07T04:12:56;43.83;;;24.13;;
22894;SDS011;11614;52.494;6.976;2023-05-07T04:15:22;44.77;;;27.17;;
22894;SDS011;11614;52.494;6.976;2023-05-07T04:17:48;39.27;;;21.33;;
22894;SDS011;11614;52.494;6.976;2023-05-07T04:20:14;29.27;;;14.73;;
22894;SDS011;11614;52.494;6.976;2023-05-07T04:22:41;50.07;;;29.50;;
22894;SDS011;11614;52.494;6.976;2023-05-07T04:25:07;43.23;;;25.87;;
22894;SDS011;11614;52.494;6.976;2023-05-07T04:27:34;33.10;;;20.30;;
22894;SDS011;11614;52.494;6.976;2023-05-07T04:29:59;34.90;;;19.57;;
22894;SDS011;11614;52.494;6.976;2023-05-07T04:32:26;31.43;;;16.00;;
22894;SDS011;11614;52.494;6.976;2023-05-07T04:34:54;41.57;;;25.43;;
22894;SDS011;11614;52.494;6.976;2023-05-07T04:37:20;37.93;;;21.80;;
22894;SDS011;11614;52.494;6.976;2023-05-07T04:39:46;30.53;;;14.73;;
22894;SDS011;11614;52.494;6.976;2023-05-07T04:42:15;38.33;;;25.70;;
22894;SDS011;11614;52.494;6.976;2023-05-07T04:44:42;45.60;;;25.83;;
22894;SDS011;11614;52.494;6.976;2023-05-07T04:47:08;33.33;;;20.50;;
22894;SDS011;11614;52.494;6.976;2023-05-07T04:49:34;41.80;;;27.63;;
22894;SDS011;11614;52.494;6.976;2023-05-07T04:52:00;30.97;;;18.07;;
22894;SDS011;11614;52.494;6.976;2023-05-07T04:54:26;44.63;;;27.37;;
22894;SDS011;11614;52.494;6.976;2023-05-07T04:56:52;29.73;;;19.17;;
22894;SDS011;11614;52.494;6.976;2023-05-07T04:59:18;28.27;;;14.83;;
22894;SDS011;11614;52.494;6.976;2023-05-07T05:01:44;26.63;;;13.97;;
22894;SDS011;11614;52.494;6.976;2023-05-07T05:04:10;39.10;;;21.70;;
22894;SDS011;11614;52.494;6.976;2023-05-07T05:06:36;44.33;;;27.00;;
22894;SDS011;11614;52.494;6.976;2023-05-07T05:09:02;39.13;;;25.80;;
22894;SDS011;11614;52.494;6.976;2023-05-07T05:11:29;41.00;;;24.40;;
22894;SDS011;11614;52.494;6.976;2023-05-07T05:13:55;39.43;;;25.33;;
22894;SDS011;11614;52.494;6.976;2023-05-07T05:16:22;39.43;;;24.50;;
22894;SDS011;11614;52.494;6.976;2023-05-07T05:18:47;35.33;;;23.90;;
22894;SDS011;11614;52.494;6.976;2023-05-07T05:21:13;41.17;;;24.17;;
22894;SDS011;11614;52.494;6.976;2023-05-07T05:23:39;45.63;;;26.97;;
22894;SDS011;11614;52.494;6.976;2023-05-07T05:26:05;43.07;;;26.00;;
22894;SDS011;11614;52.494;6.976;2023-05-07T05:28:30;40.43;;;27.80;;
22894;SDS011;11614;52.494;6.976;2023-05-07T05:30:56;41.80;;;25.90;;
22894;SDS011;11614;52.494;6.976;2023-05-07T05:33:22;35.53;;;21.30;;
22894;SDS011;11614;52.494;6.976;2023-05-07T05:35:47;34.77;;;18.17;;
22894;SDS011;11614;52.494;6.976;2023-05-07T05:38:13;45.50;;;25.80;;
22894;SDS011;11614;52.494;6.976;2023-05-07T05:40:39;40.87;;;24.33;;
22894;SDS011;11614;52.494;6.976;2023-05-07T05:43:05;39.33;;;26.20;;
22894;SDS011;11614;52.494;6.976;2023-05-07T05:45:31;48.30;;;29.73;;
22894;SDS011;11614;52.494;6.976;2023-05-07T05:47:57;33.40;;;19.57;;
22894;SDS011;11614;52.494;6.976;2023-05-07T05:50:23;35.70;;;19.47;;
22894;SDS011;11614;52.494;6.976;2023-05-07T05:52:49;42.30;;;24.90;;
22894;SDS011;11614;52.494;6.976;2023-05-07T05:55:15;34.40;;;24.13;;
22894;SDS011;11614;52.494;6.976;2023-05-07T05:57:41;30.90;;;18.63;;
22894;SDS011;11614;52.494;6.976;2023-05-07T06:00:07;43.63;;;26.93;;
22894;SDS011;11614;52.494;6.976;2023-05-07T06:02:33;41.73;;;28.83;;
22894;SDS011;11614;52.494;6.976;2023-05-07T06:04:59;27.37;;;15.70;;
22894;SDS011;11614;52.494;6.976;2023-05-07T06:07:25;41.67;;;26.23;;
22894;SDS011;11614;52.494;6.976;2023-05-07T06:09:51;43.67;;;26.23;;
22894;SDS011;11614;52.494;6.976;2023-05-07T06:12:17;38.43;;;24.80;;
22894;SDS011;11614;52.494;6.976;2023-05-07T06:14:43;34.27;;;21.57;;
22894;SDS011;11614;52.494;6.976;2023-05-07T06:17:09;38.53;;;23.90;;
22894;SDS011;11614;52.494;6.976;2023-05-07T06:19:34;37.07;;;23.07;;
22894;SDS011;11614;52.494;6.976;2023-05-07T06:22:00;42.67;;;26.43;;
22894;SDS011;11614;52.494;6.976;2023-05-07T06:24:27;34.43;;;22.80;;
22894;SDS011;11614;52.494;6.976;2023-05-07T06:26:53;48.10;;;29.37;;
22894;SDS011;11614;52.494;6.976;2023-05-07T06:29:19;42.53;;;27.37;;
22894;SDS011;11614;52.494;6.976;2023-05-07T06:31:45;42.57;;;26.93;;
22894;SDS011;11614;52.494;6.976;2023-05-07T06:34:11;44.33;;;26.70;;
22894;SDS011;11614;52.494;6.976;2023-05-07T06:36:39;43.90;;;28.90;;
22894;SDS011;11614;52.494;6.976;2023-05-07T06:39:05;45.13;;;27.47;;
22894;SDS011;11614;52.494;6.976;2023-05-07T06:41:31;41.50;;;26.30;;
22894;SDS011;11614;52.494;6.976;2023-05-07T06:43:57;26.07;;;14.00;;
22894;SDS011;11614;52.494;6.976;2023-05-07T06:46:23;24.33;;;13.10;;
22894;SDS011;11614;52.494;6.976;2023-05-07T06:48:49;35.50;;;23.67;;
22894;SDS011;11614;52.494;6.976;2023-05-07T06:51:14;33.07;;;19.80;;
22894;SDS011;11614;52.494;6.976;2023-05-07T06:53:40;37.23;;;23.37;;
22894;SDS011;11614;52.494;6.976;2023-05-07T06:56:06;39.20;;;24.57;;
22894;SDS011;11614;52.494;6.976;2023-05-07T06:58:32;35.27;;;20.00;;
22894;SDS011;11614;52.494;6.976;2023-05-07T07:00:58;43.53;;;27.63;;
22894;SDS011;11614;52.494;6.976;2023-05-07T07:03:24;37.63;;;24.33;;
22894;SDS011;11614;52.494;6.976;2023-05-07T07:05:53;38.30;;;20.93;;
22894;SDS011;11614;52.494;6.976;2023-05-07T07:08:19;36.70;;;23.53;;
22894;SDS011;11614;52.494;6.976;2023-05-07T07:10:46;35.47;;;21.73;;
22894;SDS011;11614;52.494;6.976;2023-05-07T07:13:12;35.50;;;22.77;;
22894;SDS011;11614;52.494;6.976;2023-05-07T07:15:38;41.73;;;28.17;;
22894;SDS011;11614;52.494;6.976;2023-05-07T07:18:04;29.47;;;18.07;;
22894;SDS011;11614;52.494;6.976;2023-05-07T07:20:30;39.53;;;26.57;;
22894;SDS011;11614;52.494;6.976;2023-05-07T07:22:55;36.93;;;21.93;;
22894;SDS011;11614;52.494;6.976;2023-05-07T07:25:21;34.43;;;22.40;;
22894;SDS011;11614;52.494;6.976;2023-05-07T07:27:48;29.63;;;18.73;;
22894;SDS011;11614;52.494;6.976;2023-05-07T07:30:14;36.97;;;22.50;;
22894;SDS011;11614;52.494;6.976;2023-05-07T07:32:40;26.33;;;15.83;;
22894;SDS011;11614;52.494;6.976;2023-05-07T07:35:06;33.20;;;20.93;;
22894;SDS011;11614;52.494;6.976;2023-05-07T07:37:32;34.63;;;22.43;;
22894;SDS011;11614;52.494;6.976;2023-05-07T07:39:59;33.50;;;23.00;;
22894;SDS011;11614;52.494;6.976;2023-05-07T07:42:25;35.30;;;23.37;;
22894;SDS011;11614;52.494;6.976;2023-05-07T07:44:50;34.57;;;22.67;;
22894;SDS011;11614;52.494;6.976;2023-05-07T07:47:16;30.87;;;21.07;;
22894;SDS011;11614;52.494;6.976;2023-05-07T07:49:41;36.73;;;22.97;;
22894;SDS011;11614;52.494;6.976;2023-05-07T07:52:07;33.57;;;20.63;;
22894;SDS011;11614;52.494;6.976;2023-05-07T07:54:33;38.17;;;24.57;;
22894;SDS011;11614;52.494;6.976;2023-05-07T07:56:59;30.57;;;20.30;;
22894;SDS011;11614;52.494;6.976;2023-05-07T07:59:26;33.90;;;21.40;;
22894;SDS011;11614;52.494;6.976;2023-05-07T08:01:52;38.33;;;25.73;;
22894;SDS011;11614;52.494;6.976;2023-05-07T08:04:20;19.60;;;12.17;;
22894;SDS011;11614;52.494;6.976;2023-05-07T08:06:46;32.63;;;21.43;;
22894;SDS011;11614;52.494;6.976;2023-05-07T08:09:12;34.70;;;21.10;;
22894;SDS011;11614;52.494;6.976;2023-05-07T08:11:37;37.70;;;25.00;;
22894;SDS011;11614;52.494;6.976;2023-05-07T08:14:03;34.03;;;22.97;;
22894;SDS011;11614;52.494;6.976;2023-05-07T08:16:29;39.17;;;25.33;;
22894;SDS011;11614;52.494;6.976;2023-05-07T08:18:55;37.30;;;24.43;;
22894;SDS011;11614;52.494;6.976;2023-05-07T08:21:21;33.43;;;22.93;;
22894;SDS011;11614;52.494;6.976;2023-05-07T08:23:47;34.80;;;22.80;;
22894;SDS011;11614;52.494;6.976;2023-05-07T08:26:13;35.07;;;25.63;;
22894;SDS011;11614;52.494;6.976;2023-05-07T08:28:39;23.13;;;14.23;;
22894;SDS011;11614;52.494;6.976;2023-05-07T08:31:04;31.23;;;20.73;;
22894;SDS011;11614;52.494;6.976;2023-05-07T08:33:30;31.60;;;22.03;;
22894;SDS011;11614;52.494;6.976;2023-05-07T08:35:56;27.87;;;16.80;;
22894;SDS011;11614;52.494;6.976;2023-05-07T08:38:22;30.33;;;21.50;;
22894;SDS011;11614;52.494;6.976;2023-05-07T08:40:47;23.37;;;12.23;;
22894;SDS011;11614;52.494;6.976;2023-05-07T08:43:14;39.20;;;26.40;;
22894;SDS011;11614;52.494;6.976;2023-05-07T08:45:40;38.13;;;21.67;;
22894;SDS011;11614;52.494;6.976;2023-05-07T08:48:15;33.17;;;22.08;;
22894;SDS011;11614;52.494;6.976;2023-05-07T08:50:41;30.92;;;19.30;;
22894;SDS011;11614;52.494;6.976;2023-05-07T08:53:07;28.70;;;20.73;;
22894;SDS011;11614;52.494;6.976;2023-05-07T08:55:33;25.40;;;16.17;;
22894;SDS011;11614;52.494;6.976;2023-05-07T08:57:59;20.58;;;13.43;;
22894;SDS011;11614;52.494;6.976;2023-05-07T09:00:26;33.63;;;22.92;;
22894;SDS011;11614;52.494;6.976;2023-05-07T09:02:52;29.52;;;21.20;;
22894;SDS011;11614;52.494;6.976;2023-05-07T09:05:18;24.15;;;15.52;;
22894;SDS011;11614;52.494;6.976;2023-05-07T09:07:45;29.83;;;22.40;;
22894;SDS011;11614;52.494;6.976;2023-05-07T09:10:11;29.40;;;20.73;;
22894;SDS011;11614;52.494;6.976;2023-05-07T09:12:38;28.08;;;19.90;;
22894;SDS011;11614;52.494;6.976;2023-05-07T09:15:04;26.92;;;16.83;;
22894;SDS011;11614;52.494;6.976;2023-05-07T09:17:30;32.17;;;22.73;;
22894;SDS011;11614;52.494;6.976;2023-05-07T09:20:03;31.70;;;22.67;;
22894;SDS011;11614;52.494;6.976;2023-05-07T09:22:35;27.75;;;19.77;;
22894;SDS011;11614;52.494;6.976;2023-05-07T09:25:01;28.70;;;22.35;;
22894;SDS011;11614;52.494;6.976;2023-05-07T09:27:27;28.83;;;19.10;;
22894;SDS011;11614;52.494;6.976;2023-05-07T09:29:53;27.75;;;21.00;;
22894;SDS011;11614;52.494;6.976;2023-05-07T09:32:19;28.80;;;19.05;;
22894;SDS011;11614;52.494;6.976;2023-05-07T09:34:45;29.67;;;22.35;;
22894;SDS011;11614;52.494;6.976;2023-05-07T09:37:12;28.25;;;20.70;;
22894;SDS011;11614;52.494;6.976;2023-05-07T09:39:42;25.23;;;19.17;;
22894;SDS011;11614;52.494;6.976;2023-05-07T09:42:08;18.42;;;12.27;;
22894;SDS011;11614;52.494;6.976;2023-05-07T09:44:36;23.10;;;14.98;;
22894;SDS011;11614;52.494;6.976;2023-05-07T09:47:03;29.48;;;21.75;;
22894;SDS011;11614;52.494;6.976;2023-05-07T09:49:29;27.73;;;21.13;;
22894;SDS011;11614;52.494;6.976;2023-05-07T09:51:56;25.38;;;18.13;;
22894;SDS011;11614;52.494;6.976;2023-05-07T09:54:22;24.75;;;18.40;;
22894;SDS011;11614;52.494;6.976;2023-05-07T09:56:48;24.10;;;18.95;;
22894;SDS011;11614;52.494;6.976;2023-05-07T09:59:14;25.00;;;16.15;;
22894;SDS011;11614;52.494;6.976;2023-05-07T10:01:41;24.92;;;17.15;;
22894;SDS011;11614;52.494;6.976;2023-05-07T10:04:08;28.98;;;21.70;;
22894;SDS011;11614;52.494;6.976;2023-05-07T10:06:34;22.60;;;16.15;;
22894;SDS011;11614;52.494;6.976;2023-05-07T10:09:02;23.88;;;17.00;;
22894;SDS011;11614;52.494;6.976;2023-05-07T10:11:28;17.67;;;12.15;;
22894;SDS011;11614;52.494;6.976;2023-05-07T10:13:54;25.23;;;17.65;;
22894;SDS011;11614;52.494;6.976;2023-05-07T10:16:20;25.63;;;20.77;;
22894;SDS011;11614;52.494;6.976;2023-05-07T10:18:47;22.35;;;17.30;;
22894;SDS011;11614;52.494;6.976;2023-05-07T10:21:19;24.73;;;17.40;;
22894;SDS011;11614;52.494;6.976;2023-05-07T10:23:49;20.40;;;15.82;;
22894;SDS011;11614;52.494;6.976;2023-05-07T10:26:17;22.92;;;19.70;;
22894;SDS011;11614;52.494;6.976;2023-05-07T10:28:44;23.60;;;17.50;;
22894;SDS011;11614;52.494;6.976;2023-05-07T10:33:36;21.50;;;17.80;;
22894;SDS011;11614;52.494;6.976;2023-05-07T10:36:03;19.38;;;15.25;;
22894;SDS011;11614;52.494;6.976;2023-05-07T10:38:31;21.92;;;17.25;;
22894;SDS011;11614;52.494;6.976;2023-05-07T10:40:57;23.88;;;19.05;;
22894;SDS011;11614;52.494;6.976;2023-05-07T10:43:23;24.80;;;18.02;;
22894;SDS011;11614;52.494;6.976;2023-05-07T10:48:34;23.77;;;19.42;;
22894;SDS011;11614;52.494;6.976;2023-05-07T10:51:21;19.58;;;13.38;;
22894;SDS011;11614;52.494;6.976;2023-05-07T10:53:47;26.08;;;20.73;;
22894;SDS011;11614;52.494;6.976;2023-05-07T10:58:45;15.55;;;11.82;;
22894;SDS011;11614;52.494;6.976;2023-05-07T11:01:11;19.88;;;15.10;;
22894;SDS011;11614;52.494;6.976;2023-05-07T11:04:12;22.38;;;15.57;;
22894;SDS011;11614;52.494;6.976;2023-05-07T11:06:24;23.70;;;18.13;;
22894;SDS011;11614;52.494;6.976;2023-05-07T11:08:56;22.98;;;17.67;;
22894;SDS011;11614;52.494;6.976;2023-05-07T11:14:07;21.77;;;17.35;;
22894;SDS011;11614;52.494;6.976;2023-05-07T11:16:33;15.05;;;12.45;;
22894;SDS011;11614;52.494;6.976;2023-05-07T11:19:01;21.65;;;17.65;;
22894;SDS011;11614;52.494;6.976;2023-05-07T11:21:40;20.50;;;15.52;;
22894;SDS011;11614;52.494;6.976;2023-05-07T11:24:07;20.52;;;16.92;;
22894;SDS011;11614;52.494;6.976;2023-05-07T11:26:49;16.77;;;13.05;;
22894;SDS011;11614;52.494;6.976;2023-05-07T11:29:16;25.73;;;20.42;;
22894;SDS011;11614;52.494;6.976;2023-05-07T11:31:43;22.40;;;18.00;;
22894;SDS011;11614;52.494;6.976;2023-05-07T11:34:09;17.42;;;13.02;;
22894;SDS011;11614;52.494;6.976;2023-05-07T11:36:35;20.38;;;15.98;;
22894;SDS011;11614;52.494;6.976;2023-05-07T11:39:22;20.17;;;16.27;;
22894;SDS011;11614;52.494;6.976;2023-05-07T11:41:48;20.33;;;16.00;;
22894;SDS011;11614;52.494;6.976;2023-05-07T11:44:14;22.95;;;19.63;;
22894;SDS011;11614;52.494;6.976;2023-05-07T11:46:42;21.38;;;18.05;;
22894;SDS011;11614;52.494;6.976;2023-05-07T11:49:12;21.95;;;18.60;;
22894;SDS011;11614;52.494;6.976;2023-05-07T11:51:38;24.08;;;17.75;;
22894;SDS011;11614;52.494;6.976;2023-05-07T11:54:05;18.02;;;14.63;;
22894;SDS011;11614;52.494;6.976;2023-05-07T11:56:36;22.58;;;18.15;;
22894;SDS011;11614;52.494;6.976;2023-05-07T11:59:02;19.88;;;15.82;;
22894;SDS011;11614;52.494;6.976;2023-05-07T12:01:28;23.83;;;18.80;;
22894;SDS011;11614;52.494;6.976;2023-05-07T12:03:54;21.08;;;16.17;;
22894;SDS011;11614;52.494;6.976;2023-05-07T12:06:20;16.15;;;13.13;;
22894;SDS011;11614;52.494;6.976;2023-05-07T12:08:46;15.93;;;11.77;;
22894;SDS011;11614;52.494;6.976;2023-05-07T12:11:13;21.27;;;16.58;;
22894;SDS011;11614;52.494;6.976;2023-05-07T12:13:40;23.58;;;17.98;;
22894;SDS011;11614;52.494;6.976;2023-05-07T12:16:06;17.20;;;14.52;;
22894;SDS011;11614;52.494;6.976;2023-05-07T12:18:33;18.17;;;15.05;;
22894;SDS011;11614;52.494;6.976;2023-05-07T12:21:00;19.38;;;15.15;;
22894;SDS011;11614;52.494;6.976;2023-05-07T12:23:26;19.40;;;14.98;;
22894;SDS011;11614;52.494;6.976;2023-05-07T12:25:52;19.45;;;14.02;;
22894;SDS011;11614;52.494;6.976;2023-05-07T12:28:19;20.27;;;15.02;;
22894;SDS011;11614;52.494;6.976;2023-05-07T12:30:46;22.67;;;18.23;;
22894;SDS011;11614;52.494;6.976;2023-05-07T12:33:16;18.63;;;13.95;;
22894;SDS011;11614;52.494;6.976;2023-05-07T12:35:42;18.15;;;15.02;;
22894;SDS011;11614;52.494;6.976;2023-05-07T12:38:09;19.42;;;14.60;;
22894;SDS011;11614;52.494;6.976;2023-05-07T12:40:36;20.98;;;16.35;;
22894;SDS011;11614;52.494;6.976;2023-05-07T12:43:03;15.73;;;13.80;;
22894;SDS011;11614;52.494;6.976;2023-05-07T12:45:29;15.60;;;13.65;;
22894;SDS011;11614;52.494;6.976;2023-05-07T12:47:55;22.23;;;17.75;;
22894;SDS011;11614;52.494;6.976;2023-05-07T12:50:22;15.30;;;12.02;;
22894;SDS011;11614;52.494;6.976;2023-05-07T12:52:48;16.83;;;14.93;;
22894;SDS011;11614;52.494;6.976;2023-05-07T12:55:15;17.63;;;14.70;;
22894;SDS011;11614;52.494;6.976;2023-05-07T12:57:42;18.55;;;14.98;;
22894;SDS011;11614;52.494;6.976;2023-05-07T13:00:08;19.08;;;15.60;;
22894;SDS011;11614;52.494;6.976;2023-05-07T13:02:37;19.98;;;16.75;;
22894;SDS011;11614;52.494;6.976;2023-05-07T13:05:03;18.73;;;15.10;;
22894;SDS011;11614;52.494;6.976;2023-05-07T13:07:29;15.45;;;13.85;;
22894;SDS011;11614;52.494;6.976;2023-05-07T13:09:55;16.50;;;14.77;;
22894;SDS011;11614;52.494;6.976;2023-05-07T13:12:21;15.30;;;13.18;;
22894;SDS011;11614;52.494;6.976;2023-05-07T13:14:47;15.45;;;11.95;;
22894;SDS011;11614;52.494;6.976;2023-05-07T13:17:13;19.05;;;13.55;;
22894;SDS011;11614;52.494;6.976;2023-05-07T13:19:39;13.90;;;10.85;;
22894;SDS011;11614;52.494;6.976;2023-05-07T13:22:05;16.40;;;13.65;;
22894;SDS011;11614;52.494;6.976;2023-05-07T13:24:31;17.33;;;14.50;;
22894;SDS011;11614;52.494;6.976;2023-05-07T13:26:57;12.15;;;10.20;;
22894;SDS011;11614;52.494;6.976;2023-05-07T13:29:23;18.35;;;15.90;;
22894;SDS011;11614;52.494;6.976;2023-05-07T13:31:55;16.48;;;12.57;;
22894;SDS011;11614;52.494;6.976;2023-05-07T13:34:21;14.60;;;12.80;;
22894;SDS011;11614;52.494;6.976;2023-05-07T13:36:46;12.63;;;10.60;;
22894;SDS011;11614;52.494;6.976;2023-05-07T13:39:12;15.23;;;13.63;;
22894;SDS011;11614;52.494;6.976;2023-05-07T13:41:39;12.93;;;10.10;;
22894;SDS011;11614;52.494;6.976;2023-05-07T13:44:05;11.57;;;8.90;;
22894;SDS011;11614;52.494;6.976;2023-05-07T13:46:31;11.82;;;9.65;;
22894;SDS011;11614;52.494;6.976;2023-05-07T13:48:57;13.10;;;10.18;;
22894;SDS011;11614;52.494;6.976;2023-05-07T13:51:23;12.15;;;10.20;;
22894;SDS011;11614;52.494;6.976;2023-05-07T13:53:49;14.98;;;12.30;;
22894;SDS011;11614;52.494;6.976;2023-05-07T13:56:15;15.30;;;12.57;;
22894;SDS011;11614;52.494;6.976;2023-05-07T13:58:41;16.33;;;13.32;;
22894;SDS011;11614;52.494;6.976;2023-05-07T14:01:07;15.73;;;12.85;;
22894;SDS011;11614;52.494;6.976;2023-05-07T14:03:33;16.13;;;12.98;;
22894;SDS011;11614;52.494;6.976;2023-05-07T14:06:00;13.35;;;11.98;;
22894;SDS011;11614;52.494;6.976;2023-05-07T14:08:26;16.17;;;13.85;;
22894;SDS011;11614;52.494;6.976;2023-05-07T14:10:52;13.48;;;11.20;;
22894;SDS011;11614;52.494;6.976;2023-05-07T14:13:18;10.10;;;7.53;;
22894;SDS011;11614;52.494;6.976;2023-05-07T14:15:44;9.00;;;7.97;;
22894;SDS011;11614;52.494;6.976;2023-05-07T14:18:14;15.95;;;11.43;;
22894;SDS011;11614;52.494;6.976;2023-05-07T14:20:40;13.52;;;12.13;;
22894;SDS011;11614;52.494;6.976;2023-05-07T14:23:08;12.25;;;9.98;;
22894;SDS011;11614;52.494;6.976;2023-05-07T14:25:34;10.85;;;9.75;;
22894;SDS011;11614;52.494;6.976;2023-05-07T14:28:00;15.35;;;11.18;;